sensor_id;sensor_type;location;lat;lon;timestamp;P1;durP1;ratioP1;P2;durP2;ratioP2
60060;SDS011;45933;51.336;12.612;2024-01-30T00:01:00;8.73;;;4.90;;
60060;SDS011;45933;51.336;12.612;2024-01-30T00:03:25;9.13;;;4.73;;
60060;SDS011;45933;51.336;12.612;2024-01-30T00:05:51;8.30;;;5.10;;
60060;SDS011;45933;51.336;12.612;2024-01-30T00:08:17;7.37;;;4.77;;
60060;SDS011;45933;51.336;12.612;2024-01-30T00:10:42;9.00;;;5.53;;
60060;SDS011;45933;51.336;12.612;2024-01-30T00:13:07;10.17;;;5.47;;
60060;SDS011;45933;51.336;12.612;2024-01-30T00:15:33;9.43;;;5.20;;
60060;SDS011;45933;51.336;12.612;2024-01-30T00:17:59;6.73;;;5.10;;
60060;SDS011;45933;51.336;12.612;2024-01-30T00:20:24;11.73;;;5.13;;
60060;SDS011;45933;51.336;12.612;2024-01-30T00:22:50;10.07;;;5.27;;
60060;SDS011;45933;51.336;12.612;2024-01-30T00:25:15;8.10;;;5.47;;
60060;SDS011;45933;51.336;12.612;2024-01-30T00:27:40;10.07;;;5.70;;
60060;SDS011;45933;51.336;12.612;2024-01-30T00:30:06;10.27;;;5.73;;
60060;SDS011;45933;51.336;12.612;2024-01-30T00:32:31;8.90;;;5.00;;
60060;SDS011;45933;51.336;12.612;2024-01-30T00:34:57;9.07;;;5.90;;
60060;SDS011;45933;51.336;12.612;2024-01-30T00:37:22;8.37;;;5.27;;
60060;SDS011;45933;51.336;12.612;2024-01-30T00:39:48;12.40;;;5.77;;
60060;SDS011;45933;51.336;12.612;2024-01-30T00:42:13;8.83;;;5.47;;
60060;SDS011;45933;51.336;12.612;2024-01-30T00:44:39;9.00;;;5.77;;
60060;SDS011;45933;51.336;12.612;2024-01-30T00:47:04;11.87;;;5.67;;
60060;SDS011;45933;51.336;12.612;2024-01-30T00:49:30;8.83;;;5.40;;
60060;SDS011;45933;51.336;12.612;2024-01-30T00:51:55;9.13;;;5.40;;
60060;SDS011;45933;51.336;12.612;2024-01-30T00:54:20;10.50;;;5.73;;
60060;SDS011;45933;51.336;12.612;2024-01-30T00:56:46;12.00;;;6.33;;
60060;SDS011;45933;51.336;12.612;2024-01-30T00:59:11;10.03;;;5.77;;
60060;SDS011;45933;51.336;12.612;2024-01-30T01:01:36;10.00;;;5.80;;
60060;SDS011;45933;51.336;12.612;2024-01-30T01:04:02;9.27;;;5.37;;
60060;SDS011;45933;51.336;12.612;2024-01-30T01:06:27;12.80;;;6.00;;
60060;SDS011;45933;51.336;12.612;2024-01-30T01:08:52;11.00;;;5.50;;
60060;SDS011;45933;51.336;12.612;2024-01-30T01:11:18;11.77;;;5.77;;
60060;SDS011;45933;51.336;12.612;2024-01-30T01:13:43;19.37;;;10.00;;
60060;SDS011;45933;51.336;12.612;2024-01-30T01:16:09;13.27;;;6.67;;
60060;SDS011;45933;51.336;12.612;2024-01-30T01:18:34;9.27;;;5.43;;
60060;SDS011;45933;51.336;12.612;2024-01-30T01:20:59;12.60;;;6.17;;
60060;SDS011;45933;51.336;12.612;2024-01-30T01:23:25;14.03;;;5.57;;
60060;SDS011;45933;51.336;12.612;2024-01-30T01:25:50;11.03;;;5.83;;
60060;SDS011;45933;51.336;12.612;2024-01-30T01:28:16;10.87;;;6.10;;
60060;SDS011;45933;51.336;12.612;2024-01-30T01:30:41;9.73;;;5.50;;
60060;SDS011;45933;51.336;12.612;2024-01-30T01:33:06;10.33;;;5.40;;
60060;SDS011;45933;51.336;12.612;2024-01-30T01:35:32;10.60;;;5.50;;
60060;SDS011;45933;51.336;12.612;2024-01-30T01:37:57;9.27;;;5.93;;
60060;SDS011;45933;51.336;12.612;2024-01-30T01:40:25;8.67;;;5.23;;
60060;SDS011;45933;51.336;12.612;2024-01-30T01:42:51;9.67;;;5.33;;
60060;SDS011;45933;51.336;12.612;2024-01-30T01:45:18;13.10;;;5.77;;
60060;SDS011;45933;51.336;12.612;2024-01-30T01:47:44;9.83;;;5.60;;
60060;SDS011;45933;51.336;12.612;2024-01-30T01:50:12;8.03;;;5.47;;
60060;SDS011;45933;51.336;12.612;2024-01-30T01:52:39;8.37;;;5.43;;
60060;SDS011;45933;51.336;12.612;2024-01-30T01:55:06;9.00;;;5.77;;
60060;SDS011;45933;51.336;12.612;2024-01-30T01:57:33;8.53;;;5.27;;
60060;SDS011;45933;51.336;12.612;2024-01-30T01:59:59;10.80;;;5.80;;
60060;SDS011;45933;51.336;12.612;2024-01-30T02:02:26;8.97;;;5.60;;
60060;SDS011;45933;51.336;12.612;2024-01-30T02:04:53;8.40;;;5.13;;
60060;SDS011;45933;51.336;12.612;2024-01-30T02:07:19;12.83;;;5.97;;
60060;SDS011;45933;51.336;12.612;2024-01-30T02:09:45;9.40;;;5.07;;
60060;SDS011;45933;51.336;12.612;2024-01-30T02:12:10;9.40;;;5.27;;
60060;SDS011;45933;51.336;12.612;2024-01-30T02:14:44;10.37;;;5.47;;
60060;SDS011;45933;51.336;12.612;2024-01-30T02:17:10;9.10;;;5.70;;
60060;SDS011;45933;51.336;12.612;2024-01-30T02:19:36;11.53;;;5.60;;
60060;SDS011;45933;51.336;12.612;2024-01-30T02:22:01;9.77;;;4.97;;
60060;SDS011;45933;51.336;12.612;2024-01-30T02:24:27;9.43;;;5.33;;
60060;SDS011;45933;51.336;12.612;2024-01-30T02:26:52;8.93;;;5.80;;
60060;SDS011;45933;51.336;12.612;2024-01-30T02:29:17;9.23;;;5.30;;
60060;SDS011;45933;51.336;12.612;2024-01-30T02:31:43;8.30;;;5.00;;
60060;SDS011;45933;51.336;12.612;2024-01-30T02:34:10;9.13;;;5.40;;
60060;SDS011;45933;51.336;12.612;2024-01-30T02:36:36;9.93;;;5.53;;
60060;SDS011;45933;51.336;12.612;2024-01-30T02:39:01;8.10;;;5.20;;
60060;SDS011;45933;51.336;12.612;2024-01-30T02:41:26;9.13;;;5.03;;
60060;SDS011;45933;51.336;12.612;2024-01-30T02:43:51;8.07;;;5.20;;
60060;SDS011;45933;51.336;12.612;2024-01-30T02:46:17;9.37;;;5.17;;
60060;SDS011;45933;51.336;12.612;2024-01-30T02:48:42;11.27;;;5.40;;
60060;SDS011;45933;51.336;12.612;2024-01-30T02:51:07;9.57;;;5.07;;
60060;SDS011;45933;51.336;12.612;2024-01-30T02:53:33;9.57;;;5.13;;
60060;SDS011;45933;51.336;12.612;2024-01-30T02:55:58;9.80;;;5.00;;
60060;SDS011;45933;51.336;12.612;2024-01-30T02:58:23;7.70;;;5.07;;
60060;SDS011;45933;51.336;12.612;2024-01-30T03:00:48;9.00;;;5.00;;
60060;SDS011;45933;51.336;12.612;2024-01-30T03:03:14;7.60;;;5.20;;
60060;SDS011;45933;51.336;12.612;2024-01-30T03:05:39;8.27;;;4.70;;
60060;SDS011;45933;51.336;12.612;2024-01-30T03:08:04;10.50;;;5.13;;
60060;SDS011;45933;51.336;12.612;2024-01-30T03:10:30;9.80;;;5.33;;
60060;SDS011;45933;51.336;12.612;2024-01-30T03:12:55;8.60;;;5.10;;
60060;SDS011;45933;51.336;12.612;2024-01-30T03:15:20;9.37;;;5.20;;
60060;SDS011;45933;51.336;12.612;2024-01-30T03:17:45;9.03;;;4.83;;
60060;SDS011;45933;51.336;12.612;2024-01-30T03:20:11;10.07;;;4.87;;
60060;SDS011;45933;51.336;12.612;2024-01-30T03:22:36;8.90;;;4.60;;
60060;SDS011;45933;51.336;12.612;2024-01-30T03:25:01;9.00;;;4.80;;
60060;SDS011;45933;51.336;12.612;2024-01-30T03:27:27;8.20;;;4.73;;
60060;SDS011;45933;51.336;12.612;2024-01-30T03:29:52;7.37;;;4.80;;
60060;SDS011;45933;51.336;12.612;2024-01-30T03:32:17;7.70;;;5.10;;
60060;SDS011;45933;51.336;12.612;2024-01-30T03:34:42;7.53;;;4.77;;
60060;SDS011;45933;51.336;12.612;2024-01-30T03:37:08;7.03;;;4.50;;
60060;SDS011;45933;51.336;12.612;2024-01-30T03:39:33;8.60;;;4.60;;
60060;SDS011;45933;51.336;12.612;2024-01-30T03:41:58;9.20;;;5.10;;
60060;SDS011;45933;51.336;12.612;2024-01-30T03:44:23;8.97;;;5.13;;
60060;SDS011;45933;51.336;12.612;2024-01-30T03:46:49;8.20;;;4.53;;
60060;SDS011;45933;51.336;12.612;2024-01-30T03:49:14;7.67;;;4.77;;
60060;SDS011;45933;51.336;12.612;2024-01-30T03:51:39;9.43;;;5.07;;
60060;SDS011;45933;51.336;12.612;2024-01-30T03:54:05;8.40;;;4.37;;
60060;SDS011;45933;51.336;12.612;2024-01-30T03:56:30;7.27;;;4.23;;
60060;SDS011;45933;51.336;12.612;2024-01-30T03:58:55;8.07;;;4.80;;
60060;SDS011;45933;51.336;12.612;2024-01-30T04:04:43;9.90;;;4.87;;
60060;SDS011;45933;51.336;12.612;2024-01-30T04:07:08;9.70;;;4.67;;
60060;SDS011;45933;51.336;12.612;2024-01-30T04:09:34;8.77;;;4.73;;
60060;SDS011;45933;51.336;12.612;2024-01-30T04:11:59;8.30;;;4.30;;
60060;SDS011;45933;51.336;12.612;2024-01-30T04:14:24;7.57;;;4.33;;
60060;SDS011;45933;51.336;12.612;2024-01-30T04:16:50;9.03;;;4.37;;
60060;SDS011;45933;51.336;12.612;2024-01-30T04:19:15;6.43;;;4.20;;
60060;SDS011;45933;51.336;12.612;2024-01-30T04:21:40;9.67;;;4.37;;
60060;SDS011;45933;51.336;12.612;2024-01-30T04:24:05;10.53;;;5.00;;
60060;SDS011;45933;51.336;12.612;2024-01-30T04:26:31;7.13;;;4.53;;
60060;SDS011;45933;51.336;12.612;2024-01-30T04:28:56;7.67;;;4.33;;
60060;SDS011;45933;51.336;12.612;2024-01-30T04:31:21;6.23;;;4.30;;
60060;SDS011;45933;51.336;12.612;2024-01-30T04:33:46;7.87;;;4.50;;
60060;SDS011;45933;51.336;12.612;2024-01-30T04:36:12;8.37;;;4.43;;
60060;SDS011;45933;51.336;12.612;2024-01-30T04:38:40;8.57;;;4.90;;
60060;SDS011;45933;51.336;12.612;2024-01-30T04:41:05;8.87;;;4.97;;
60060;SDS011;45933;51.336;12.612;2024-01-30T04:43:31;8.60;;;4.60;;
60060;SDS011;45933;51.336;12.612;2024-01-30T04:45:56;10.80;;;5.07;;
60060;SDS011;45933;51.336;12.612;2024-01-30T04:48:21;7.67;;;4.80;;
60060;SDS011;45933;51.336;12.612;2024-01-30T04:50:46;8.33;;;4.77;;
60060;SDS011;45933;51.336;12.612;2024-01-30T04:53:12;8.43;;;4.80;;
60060;SDS011;45933;51.336;12.612;2024-01-30T04:55:37;8.93;;;4.90;;
60060;SDS011;45933;51.336;12.612;2024-01-30T04:58:02;10.00;;;5.60;;
60060;SDS011;45933;51.336;12.612;2024-01-30T05:00:27;9.70;;;6.10;;
60060;SDS011;45933;51.336;12.612;2024-01-30T05:02:54;10.97;;;5.53;;
60060;SDS011;45933;51.336;12.612;2024-01-30T05:05:20;9.43;;;5.57;;
60060;SDS011;45933;51.336;12.612;2024-01-30T05:07:46;12.50;;;5.97;;
60060;SDS011;45933;51.336;12.612;2024-01-30T05:10:12;9.57;;;5.00;;
60060;SDS011;45933;51.336;12.612;2024-01-30T05:12:38;13.10;;;5.97;;
60060;SDS011;45933;51.336;12.612;2024-01-30T05:15:04;10.87;;;4.80;;
60060;SDS011;45933;51.336;12.612;2024-01-30T05:17:29;8.40;;;4.77;;
60060;SDS011;45933;51.336;12.612;2024-01-30T05:19:54;8.90;;;4.43;;
60060;SDS011;45933;51.336;12.612;2024-01-30T05:22:20;8.17;;;4.87;;
60060;SDS011;45933;51.336;12.612;2024-01-30T05:24:45;10.20;;;4.77;;
60060;SDS011;45933;51.336;12.612;2024-01-30T05:27:10;8.97;;;4.50;;
60060;SDS011;45933;51.336;12.612;2024-01-30T05:29:38;7.33;;;4.10;;
60060;SDS011;45933;51.336;12.612;2024-01-30T05:32:03;7.43;;;4.20;;
60060;SDS011;45933;51.336;12.612;2024-01-30T05:34:30;6.73;;;3.73;;
60060;SDS011;45933;51.336;12.612;2024-01-30T05:36:55;7.87;;;4.50;;
60060;SDS011;45933;51.336;12.612;2024-01-30T05:39:20;7.47;;;4.17;;
60060;SDS011;45933;51.336;12.612;2024-01-30T05:41:46;6.97;;;4.20;;
60060;SDS011;45933;51.336;12.612;2024-01-30T05:44:11;6.97;;;3.93;;
60060;SDS011;45933;51.336;12.612;2024-01-30T05:46:37;7.83;;;4.13;;
60060;SDS011;45933;51.336;12.612;2024-01-30T05:49:02;6.37;;;4.00;;
60060;SDS011;45933;51.336;12.612;2024-01-30T05:51:27;5.43;;;3.20;;
60060;SDS011;45933;51.336;12.612;2024-01-30T05:53:53;6.20;;;3.60;;
60060;SDS011;45933;51.336;12.612;2024-01-30T05:56:19;7.47;;;4.07;;
60060;SDS011;45933;51.336;12.612;2024-01-30T05:58:44;8.33;;;4.27;;
60060;SDS011;45933;51.336;12.612;2024-01-30T06:01:09;6.43;;;3.50;;
60060;SDS011;45933;51.336;12.612;2024-01-30T06:03:35;8.67;;;4.40;;
60060;SDS011;45933;51.336;12.612;2024-01-30T06:06:00;7.23;;;4.27;;
60060;SDS011;45933;51.336;12.612;2024-01-30T06:08:26;13.67;;;4.37;;
60060;SDS011;45933;51.336;12.612;2024-01-30T06:10:51;7.27;;;3.83;;
60060;SDS011;45933;51.336;12.612;2024-01-30T06:13:16;9.93;;;4.80;;
60060;SDS011;45933;51.336;12.612;2024-01-30T06:15:41;7.23;;;3.90;;
60060;SDS011;45933;51.336;12.612;2024-01-30T06:18:07;7.13;;;4.30;;
60060;SDS011;45933;51.336;12.612;2024-01-30T06:20:32;7.03;;;3.90;;
60060;SDS011;45933;51.336;12.612;2024-01-30T06:22:57;9.53;;;4.17;;
60060;SDS011;45933;51.336;12.612;2024-01-30T06:25:22;7.83;;;4.27;;
60060;SDS011;45933;51.336;12.612;2024-01-30T06:27:48;9.13;;;4.20;;
60060;SDS011;45933;51.336;12.612;2024-01-30T06:30:13;7.50;;;4.33;;
60060;SDS011;45933;51.336;12.612;2024-01-30T06:32:39;8.40;;;4.40;;
60060;SDS011;45933;51.336;12.612;2024-01-30T06:35:05;7.67;;;4.17;;
60060;SDS011;45933;51.336;12.612;2024-01-30T06:37:30;9.23;;;4.50;;
60060;SDS011;45933;51.336;12.612;2024-01-30T06:39:56;6.07;;;4.00;;
60060;SDS011;45933;51.336;12.612;2024-01-30T06:42:21;6.43;;;4.13;;
60060;SDS011;45933;51.336;12.612;2024-01-30T06:44:46;7.20;;;3.93;;
60060;SDS011;45933;51.336;12.612;2024-01-30T06:47:12;7.80;;;4.07;;
60060;SDS011;45933;51.336;12.612;2024-01-30T06:49:37;8.37;;;4.13;;
60060;SDS011;45933;51.336;12.612;2024-01-30T06:52:04;7.90;;;3.83;;
60060;SDS011;45933;51.336;12.612;2024-01-30T06:54:30;14.30;;;4.20;;
60060;SDS011;45933;51.336;12.612;2024-01-30T06:56:56;8.27;;;4.10;;
60060;SDS011;45933;51.336;12.612;2024-01-30T06:59:21;8.93;;;4.07;;
60060;SDS011;45933;51.336;12.612;2024-01-30T07:01:46;6.70;;;4.17;;
60060;SDS011;45933;51.336;12.612;2024-01-30T07:04:11;7.07;;;4.40;;
60060;SDS011;45933;51.336;12.612;2024-01-30T07:06:37;6.43;;;4.50;;
60060;SDS011;45933;51.336;12.612;2024-01-30T07:09:02;8.67;;;4.90;;
60060;SDS011;45933;51.336;12.612;2024-01-30T07:11:28;16.77;;;4.50;;
60060;SDS011;45933;51.336;12.612;2024-01-30T07:13:53;9.30;;;4.87;;
60060;SDS011;45933;51.336;12.612;2024-01-30T07:16:19;8.27;;;4.83;;
60060;SDS011;45933;51.336;12.612;2024-01-30T07:18:44;11.73;;;5.13;;
60060;SDS011;45933;51.336;12.612;2024-01-30T07:21:10;9.87;;;4.50;;
60060;SDS011;45933;51.336;12.612;2024-01-30T07:23:35;10.77;;;4.97;;
60060;SDS011;45933;51.336;12.612;2024-01-30T07:26:03;8.80;;;5.50;;
60060;SDS011;45933;51.336;12.612;2024-01-30T07:28:29;8.17;;;4.97;;
60060;SDS011;45933;51.336;12.612;2024-01-30T07:30:55;9.07;;;4.67;;
60060;SDS011;45933;51.336;12.612;2024-01-30T07:33:20;9.83;;;4.93;;
60060;SDS011;45933;51.336;12.612;2024-01-30T07:35:46;10.00;;;5.17;;
60060;SDS011;45933;51.336;12.612;2024-01-30T07:38:11;10.27;;;5.20;;
60060;SDS011;45933;51.336;12.612;2024-01-30T07:40:36;8.37;;;5.00;;
60060;SDS011;45933;51.336;12.612;2024-01-30T07:43:02;8.10;;;5.03;;
60060;SDS011;45933;51.336;12.612;2024-01-30T07:45:28;10.77;;;5.40;;
60060;SDS011;45933;51.336;12.612;2024-01-30T07:47:57;10.40;;;5.37;;
60060;SDS011;45933;51.336;12.612;2024-01-30T07:50:22;9.70;;;5.50;;
60060;SDS011;45933;51.336;12.612;2024-01-30T07:52:48;9.97;;;5.83;;
60060;SDS011;45933;51.336;12.612;2024-01-30T07:55:16;8.33;;;5.40;;
60060;SDS011;45933;51.336;12.612;2024-01-30T07:57:41;9.23;;;5.90;;
60060;SDS011;45933;51.336;12.612;2024-01-30T08:00:08;9.87;;;5.43;;
60060;SDS011;45933;51.336;12.612;2024-01-30T08:02:33;12.60;;;5.83;;
60060;SDS011;45933;51.336;12.612;2024-01-30T08:04:58;7.57;;;5.47;;
60060;SDS011;45933;51.336;12.612;2024-01-30T08:07:24;9.40;;;5.13;;
60060;SDS011;45933;51.336;12.612;2024-01-30T08:09:49;9.67;;;5.63;;
60060;SDS011;45933;51.336;12.612;2024-01-30T08:12:15;7.93;;;5.50;;
60060;SDS011;45933;51.336;12.612;2024-01-30T08:14:40;9.03;;;5.10;;
60060;SDS011;45933;51.336;12.612;2024-01-30T08:17:06;10.37;;;5.47;;
60060;SDS011;45933;51.336;12.612;2024-01-30T08:19:32;8.50;;;5.33;;
60060;SDS011;45933;51.336;12.612;2024-01-30T08:21:57;10.07;;;5.03;;
60060;SDS011;45933;51.336;12.612;2024-01-30T08:24:23;11.60;;;5.60;;
60060;SDS011;45933;51.336;12.612;2024-01-30T08:26:48;8.67;;;5.67;;
60060;SDS011;45933;51.336;12.612;2024-01-30T08:29:13;9.03;;;5.07;;
60060;SDS011;45933;51.336;12.612;2024-01-30T08:31:39;9.47;;;5.10;;
60060;SDS011;45933;51.336;12.612;2024-01-30T08:34:04;8.70;;;5.73;;
60060;SDS011;45933;51.336;12.612;2024-01-30T08:36:29;12.13;;;5.77;;
60060;SDS011;45933;51.336;12.612;2024-01-30T08:38:55;8.40;;;5.60;;
60060;SDS011;45933;51.336;12.612;2024-01-30T08:41:20;10.60;;;5.73;;
60060;SDS011;45933;51.336;12.612;2024-01-30T08:43:45;11.67;;;6.27;;
60060;SDS011;45933;51.336;12.612;2024-01-30T08:46:11;9.90;;;6.30;;
60060;SDS011;45933;51.336;12.612;2024-01-30T08:48:36;9.67;;;5.80;;
60060;SDS011;45933;51.336;12.612;2024-01-30T08:51:01;12.03;;;5.50;;
60060;SDS011;45933;51.336;12.612;2024-01-30T08:53:27;12.97;;;5.33;;
60060;SDS011;45933;51.336;12.612;2024-01-30T08:55:52;15.27;;;5.87;;
60060;SDS011;45933;51.336;12.612;2024-01-30T08:58:17;9.63;;;5.30;;
60060;SDS011;45933;51.336;12.612;2024-01-30T09:00:44;8.57;;;5.80;;
60060;SDS011;45933;51.336;12.612;2024-01-30T09:03:09;9.70;;;5.80;;
60060;SDS011;45933;51.336;12.612;2024-01-30T09:05:34;11.07;;;5.33;;
60060;SDS011;45933;51.336;12.612;2024-01-30T09:08:00;10.50;;;6.10;;
60060;SDS011;45933;51.336;12.612;2024-01-30T09:10:25;9.10;;;5.90;;
60060;SDS011;45933;51.336;12.612;2024-01-30T09:12:50;10.97;;;6.03;;
60060;SDS011;45933;51.336;12.612;2024-01-30T09:15:15;9.83;;;6.40;;
60060;SDS011;45933;51.336;12.612;2024-01-30T09:17:41;9.67;;;6.10;;
60060;SDS011;45933;51.336;12.612;2024-01-30T09:20:06;9.73;;;6.20;;
60060;SDS011;45933;51.336;12.612;2024-01-30T09:22:32;11.53;;;5.73;;
60060;SDS011;45933;51.336;12.612;2024-01-30T09:24:57;10.03;;;6.20;;
60060;SDS011;45933;51.336;12.612;2024-01-30T09:27:23;9.53;;;5.53;;
60060;SDS011;45933;51.336;12.612;2024-01-30T09:29:48;12.80;;;6.53;;
60060;SDS011;45933;51.336;12.612;2024-01-30T09:32:13;8.90;;;6.20;;
60060;SDS011;45933;51.336;12.612;2024-01-30T09:34:39;10.20;;;6.67;;
60060;SDS011;45933;51.336;12.612;2024-01-30T09:37:04;10.83;;;6.00;;
60060;SDS011;45933;51.336;12.612;2024-01-30T09:39:30;10.00;;;6.37;;
60060;SDS011;45933;51.336;12.612;2024-01-30T09:44:30;13.43;;;5.97;;
60060;SDS011;45933;51.336;12.612;2024-01-30T09:46:55;10.03;;;6.83;;
60060;SDS011;45933;51.336;12.612;2024-01-30T09:49:23;11.27;;;5.40;;
60060;SDS011;45933;51.336;12.612;2024-01-30T09:51:49;12.70;;;6.53;;
60060;SDS011;45933;51.336;12.612;2024-01-30T09:54:15;10.07;;;6.47;;
60060;SDS011;45933;51.336;12.612;2024-01-30T09:56:40;10.70;;;6.30;;
60060;SDS011;45933;51.336;12.612;2024-01-30T09:59:07;10.00;;;6.13;;
60060;SDS011;45933;51.336;12.612;2024-01-30T10:01:34;10.90;;;6.17;;
60060;SDS011;45933;51.336;12.612;2024-01-30T10:04:00;9.87;;;6.27;;
60060;SDS011;45933;51.336;12.612;2024-01-30T10:06:25;10.63;;;6.60;;
60060;SDS011;45933;51.336;12.612;2024-01-30T10:08:52;10.57;;;7.03;;
60060;SDS011;45933;51.336;12.612;2024-01-30T10:11:17;11.03;;;6.70;;
60060;SDS011;45933;51.336;12.612;2024-01-30T10:13:43;13.77;;;6.23;;
60060;SDS011;45933;51.336;12.612;2024-01-30T10:16:08;9.03;;;5.97;;
60060;SDS011;45933;51.336;12.612;2024-01-30T10:18:33;12.20;;;6.93;;
60060;SDS011;45933;51.336;12.612;2024-01-30T10:20:59;11.90;;;6.87;;
60060;SDS011;45933;51.336;12.612;2024-01-30T10:23:24;12.77;;;7.43;;
60060;SDS011;45933;51.336;12.612;2024-01-30T10:25:50;11.77;;;7.27;;
60060;SDS011;45933;51.336;12.612;2024-01-30T10:28:17;9.63;;;6.83;;
60060;SDS011;45933;51.336;12.612;2024-01-30T10:30:42;8.77;;;6.00;;
60060;SDS011;45933;51.336;12.612;2024-01-30T10:33:07;12.73;;;7.07;;
60060;SDS011;45933;51.336;12.612;2024-01-30T10:35:33;11.43;;;6.90;;
60060;SDS011;45933;51.336;12.612;2024-01-30T10:37:58;10.67;;;6.50;;
60060;SDS011;45933;51.336;12.612;2024-01-30T10:40:25;12.18;;;7.13;;
60060;SDS011;45933;51.336;12.612;2024-01-30T10:42:53;12.23;;;7.40;;
60060;SDS011;45933;51.336;12.612;2024-01-30T10:45:20;10.35;;;7.32;;
60060;SDS011;45933;51.336;12.612;2024-01-30T10:47:50;11.48;;;6.68;;
60060;SDS011;45933;51.336;12.612;2024-01-30T10:50:19;12.05;;;6.88;;
60060;SDS011;45933;51.336;12.612;2024-01-30T10:52:45;10.27;;;6.80;;
60060;SDS011;45933;51.336;12.612;2024-01-30T10:55:11;10.27;;;6.65;;
60060;SDS011;45933;51.336;12.612;2024-01-30T10:57:38;11.07;;;6.78;;
60060;SDS011;45933;51.336;12.612;2024-01-30T11:00:10;10.45;;;6.80;;
60060;SDS011;45933;51.336;12.612;2024-01-30T11:02:41;11.32;;;7.18;;
60060;SDS011;45933;51.336;12.612;2024-01-30T11:05:09;12.32;;;7.30;;
60060;SDS011;45933;51.336;12.612;2024-01-30T11:07:34;11.25;;;6.88;;
60060;SDS011;45933;51.336;12.612;2024-01-30T11:10:01;11.35;;;7.55;;
60060;SDS011;45933;51.336;12.612;2024-01-30T11:12:30;11.23;;;7.55;;
60060;SDS011;45933;51.336;12.612;2024-01-30T11:15:06;12.07;;;7.78;;
60060;SDS011;45933;51.336;12.612;2024-01-30T11:17:39;10.88;;;7.20;;
60060;SDS011;45933;51.336;12.612;2024-01-30T11:20:05;10.18;;;7.28;;
60060;SDS011;45933;51.336;12.612;2024-01-30T11:22:35;12.25;;;7.22;;
60060;SDS011;45933;51.336;12.612;2024-01-30T11:25:01;14.48;;;8.00;;
60060;SDS011;45933;51.336;12.612;2024-01-30T11:27:28;11.05;;;7.35;;
60060;SDS011;45933;51.336;12.612;2024-01-30T11:29:54;11.40;;;8.07;;
60060;SDS011;45933;51.336;12.612;2024-01-30T11:32:26;10.02;;;6.80;;
60060;SDS011;45933;51.336;12.612;2024-01-30T11:34:52;13.77;;;7.63;;
60060;SDS011;45933;51.336;12.612;2024-01-30T11:37:17;17.98;;;8.02;;
60060;SDS011;45933;51.336;12.612;2024-01-30T11:39:46;13.90;;;7.25;;
60060;SDS011;45933;51.336;12.612;2024-01-30T11:42:13;14.45;;;8.27;;
60060;SDS011;45933;51.336;12.612;2024-01-30T11:44:38;12.70;;;8.05;;
60060;SDS011;45933;51.336;12.612;2024-01-30T11:47:03;12.63;;;8.00;;
60060;SDS011;45933;51.336;12.612;2024-01-30T11:49:29;13.85;;;7.50;;
60060;SDS011;45933;51.336;12.612;2024-01-30T11:51:54;10.18;;;7.05;;
60060;SDS011;45933;51.336;12.612;2024-01-30T11:54:19;9.77;;;6.72;;
60060;SDS011;45933;51.336;12.612;2024-01-30T11:56:45;11.63;;;7.22;;
60060;SDS011;45933;51.336;12.612;2024-01-30T11:59:10;9.40;;;6.55;;
60060;SDS011;45933;51.336;12.612;2024-01-30T12:01:36;11.27;;;7.65;;
60060;SDS011;45933;51.336;12.612;2024-01-30T12:04:01;12.18;;;6.68;;
60060;SDS011;45933;51.336;12.612;2024-01-30T12:06:26;9.88;;;6.50;;
60060;SDS011;45933;51.336;12.612;2024-01-30T12:09:02;10.75;;;6.80;;
60060;SDS011;45933;51.336;12.612;2024-01-30T12:11:42;12.10;;;7.32;;
60060;SDS011;45933;51.336;12.612;2024-01-30T12:14:17;9.77;;;6.60;;
60060;SDS011;45933;51.336;12.612;2024-01-30T12:16:47;8.73;;;6.25;;
60060;SDS011;45933;51.336;12.612;2024-01-30T12:19:20;11.10;;;7.07;;
60060;SDS011;45933;51.336;12.612;2024-01-30T12:21:46;10.07;;;6.72;;
60060;SDS011;45933;51.336;12.612;2024-01-30T12:24:12;12.63;;;6.93;;
60060;SDS011;45933;51.336;12.612;2024-01-30T12:26:37;10.63;;;6.55;;
60060;SDS011;45933;51.336;12.612;2024-01-30T12:29:03;10.40;;;6.63;;
60060;SDS011;45933;51.336;12.612;2024-01-30T12:31:31;11.55;;;7.20;;
60060;SDS011;45933;51.336;12.612;2024-01-30T12:33:59;10.80;;;8.07;;
60060;SDS011;45933;51.336;12.612;2024-01-30T12:36:25;12.68;;;8.10;;
60060;SDS011;45933;51.336;12.612;2024-01-30T12:38:50;14.63;;;7.43;;
60060;SDS011;45933;51.336;12.612;2024-01-30T12:41:15;11.77;;;7.80;;
60060;SDS011;45933;51.336;12.612;2024-01-30T12:43:41;10.65;;;7.05;;
60060;SDS011;45933;51.336;12.612;2024-01-30T12:46:07;15.40;;;8.30;;
60060;SDS011;45933;51.336;12.612;2024-01-30T12:48:32;14.15;;;9.30;;
60060;SDS011;45933;51.336;12.612;2024-01-30T12:50:57;11.45;;;7.32;;
60060;SDS011;45933;51.336;12.612;2024-01-30T12:53:23;12.85;;;7.30;;
60060;SDS011;45933;51.336;12.612;2024-01-30T12:55:48;12.07;;;7.18;;
60060;SDS011;45933;51.336;12.612;2024-01-30T12:58:14;12.70;;;7.43;;
60060;SDS011;45933;51.336;12.612;2024-01-30T13:00:40;9.98;;;6.78;;
60060;SDS011;45933;51.336;12.612;2024-01-30T13:03:05;9.10;;;6.53;;
60060;SDS011;45933;51.336;12.612;2024-01-30T13:05:31;11.07;;;6.57;;
60060;SDS011;45933;51.336;12.612;2024-01-30T13:07:57;9.07;;;6.35;;
60060;SDS011;45933;51.336;12.612;2024-01-30T13:10:22;10.73;;;6.07;;
60060;SDS011;45933;51.336;12.612;2024-01-30T13:12:48;8.27;;;5.82;;
60060;SDS011;45933;51.336;12.612;2024-01-30T13:15:13;8.50;;;6.32;;
60060;SDS011;45933;51.336;12.612;2024-01-30T13:17:38;8.77;;;5.82;;
60060;SDS011;45933;51.336;12.612;2024-01-30T13:20:04;11.38;;;6.50;;
60060;SDS011;45933;51.336;12.612;2024-01-30T13:22:30;11.95;;;6.03;;
60060;SDS011;45933;51.336;12.612;2024-01-30T13:24:55;9.57;;;6.03;;
60060;SDS011;45933;51.336;12.612;2024-01-30T13:27:20;10.75;;;5.88;;
60060;SDS011;45933;51.336;12.612;2024-01-30T13:29:46;8.45;;;5.90;;
60060;SDS011;45933;51.336;12.612;2024-01-30T13:32:11;10.13;;;6.00;;
60060;SDS011;45933;51.336;12.612;2024-01-30T13:34:36;8.50;;;5.50;;
60060;SDS011;45933;51.336;12.612;2024-01-30T13:37:01;9.23;;;6.32;;
60060;SDS011;45933;51.336;12.612;2024-01-30T13:39:27;10.35;;;6.47;;
60060;SDS011;45933;51.336;12.612;2024-01-30T13:41:54;10.02;;;6.18;;
60060;SDS011;45933;51.336;12.612;2024-01-30T13:44:19;10.88;;;6.57;;
60060;SDS011;45933;51.336;12.612;2024-01-30T13:46:45;8.93;;;6.28;;
60060;SDS011;45933;51.336;12.612;2024-01-30T13:49:11;9.80;;;6.25;;
60060;SDS011;45933;51.336;12.612;2024-01-30T13:51:36;9.32;;;6.15;;
60060;SDS011;45933;51.336;12.612;2024-01-30T13:54:01;10.25;;;6.30;;
60060;SDS011;45933;51.336;12.612;2024-01-30T13:56:27;11.23;;;6.30;;
60060;SDS011;45933;51.336;12.612;2024-01-30T13:58:52;10.07;;;7.07;;
60060;SDS011;45933;51.336;12.612;2024-01-30T14:01:18;12.77;;;7.40;;
60060;SDS011;45933;51.336;12.612;2024-01-30T14:03:43;14.02;;;6.88;;
60060;SDS011;45933;51.336;12.612;2024-01-30T14:06:09;9.20;;;6.40;;
60060;SDS011;45933;51.336;12.612;2024-01-30T14:08:34;10.43;;;6.60;;
60060;SDS011;45933;51.336;12.612;2024-01-30T14:10:59;13.60;;;6.80;;
60060;SDS011;45933;51.336;12.612;2024-01-30T14:13:25;10.07;;;6.78;;
60060;SDS011;45933;51.336;12.612;2024-01-30T14:15:53;16.63;;;6.90;;
60060;SDS011;45933;51.336;12.612;2024-01-30T14:18:18;12.50;;;6.53;;
60060;SDS011;45933;51.336;12.612;2024-01-30T14:20:44;9.23;;;6.90;;
60060;SDS011;45933;51.336;12.612;2024-01-30T14:23:09;11.40;;;7.43;;
60060;SDS011;45933;51.336;12.612;2024-01-30T14:25:34;10.25;;;7.07;;